2021-12-04 - 13:36:00

SR: 0720 - SS: 1519

RWY: 25


OBSERVATION: n/a

RVR Mean 1 min: (Runway Visual Range)
A: P2000 - B: P2000 - C: P2000
RVR Mean 10 min:
A: P2000 - B: P2000 - C: P2000
WARNING: n/a
W25: 050-170(130-05kt) 01kt-06kt
W07: 070-230(110-03kt) 02kt-06kt
OTHER: n/a

QFE: (tatsächlicher Luftdruck) 988.5 hPa = 29.17 inHg
QNH:(Luftdruck auf Meereshöhe) 994.2 hPa = 29.35 inHg
Temperatur: 5.1 °C
Dew point(Taupunkt): 3.3 °C

METAR:  00105 SADL31 EDDG 041320 METAR EDDG 041320Z 13004KT 080V170 9999 BKN009 05/03 Q0994 TEMPO SCT010 BKN020= 
METAR (aus weather.noaa.gov):
2021/12/04 13:20 EDDG 041320Z 13004KT 080V170 9999 BKN009 05/03 Q0994 TEMPO SCT010 BKN020

TAF (aus weather.noaa.gov):
2021/12/04 12:27 TAF EDDG 041100Z 0412/0512 15005KT 8000 SCT007 BKN010 TEMPO 0412/0415 BKN015 TEMPO 0415/0424 3000 RA BKN007 BECMG 0417/0420 24010KT TEMPO 0500/0510 4000 -RA BKN008 BECMG 0510/0512 BKN015
NOWCAST
768
FODL44 EDDG 041300
FODL44 EDDG 2112041305
# Nowcasting EDDG 04.12.2021 13:05 UTC
Parameter/Stunde14151617181920
Windrichtung120130130170220230240
Windgeschwindigkeit3333356
Böen--------------
Lufttemperatur 5 5 4 4 4 3 3
Taupunkt 3 3 3 3 3 3 3
Belagstemperatur 4 4 3 3 3 3 3
Wetter-vorherrschend-RA-RA-RA-RA-RARARA
QNH 994 993 993 993 993 994 995
Wind in 5000 ft180/10170/15210/10260/15270/20280/35280/45
Wind in 3000 ft170/10180/10230/10250/15270/20270/35280/45
Wind in 2000 ft150/10180/10210/10240/10250/20260/25270/40
Wind in 1000 ft130/10150/10210/10240/10240/15240/20270/30